sensor_id;sensor_type;location;lat;lon;timestamp;pressure;altitude;pressure_sealevel;temperature;humidity
10115;BME280;5097;43.260;27.812;2023-07-31T00:00:28;99509.78;;;21.06;94.91
10115;BME280;5097;43.260;27.812;2023-07-31T00:03:13;99511.28;;;21.09;95.02
10115;BME280;5097;43.260;27.812;2023-07-31T00:05:57;99498.88;;;21.08;95.00
10115;BME280;5097;43.260;27.812;2023-07-31T00:08:41;99517.38;;;21.19;94.45
10115;BME280;5097;43.260;27.812;2023-07-31T00:11:27;99484.72;;;20.89;94.96
10115;BME280;5097;43.260;27.812;2023-07-31T00:14:11;99472.44;;;20.79;95.28
10115;BME280;5097;43.260;27.812;2023-07-31T00:16:55;99497.69;;;20.94;95.45
10115;BME280;5097;43.260;27.812;2023-07-31T00:19:39;99528.38;;;20.91;96.49
10115;BME280;5097;43.260;27.812;2023-07-31T00:22:23;99521.16;;;20.92;97.61
10115;BME280;5097;43.260;27.812;2023-07-31T00:25:08;99469.75;;;20.36;97.19
10115;BME280;5097;43.260;27.812;2023-07-31T00:27:53;99514.50;;;20.62;96.60
10115;BME280;5097;43.260;27.812;2023-07-31T00:30:37;99472.00;;;20.49;96.81
10115;BME280;5097;43.260;27.812;2023-07-31T00:33:21;99469.19;;;20.58;97.01
10115;BME280;5097;43.260;27.812;2023-07-31T00:36:06;99522.28;;;20.81;98.26
10115;BME280;5097;43.260;27.812;2023-07-31T00:38:50;99524.81;;;20.83;95.82
10115;BME280;5097;43.260;27.812;2023-07-31T00:41:34;99452.47;;;20.30;95.97
10115;BME280;5097;43.260;27.812;2023-07-31T00:44:19;99481.75;;;20.58;96.35
10115;BME280;5097;43.260;27.812;2023-07-31T00:47:05;99485.81;;;20.62;95.77
10115;BME280;5097;43.260;27.812;2023-07-31T00:49:49;99531.53;;;20.87;96.16
10115;BME280;5097;43.260;27.812;2023-07-31T00:52:33;99510.03;;;20.79;96.29
10115;BME280;5097;43.260;27.812;2023-07-31T00:55:17;99531.88;;;20.92;95.65
10115;BME280;5097;43.260;27.812;2023-07-31T00:58:02;99524.78;;;20.74;96.62
10115;BME280;5097;43.260;27.812;2023-07-31T01:00:47;99483.91;;;20.46;96.93
10115;BME280;5097;43.260;27.812;2023-07-31T01:03:34;99524.44;;;20.77;97.16
10115;BME280;5097;43.260;27.812;2023-07-31T01:06:25;99521.94;;;20.76;96.40
10115;BME280;5097;43.260;27.812;2023-07-31T01:09:22;99504.94;;;20.67;96.94
10115;BME280;5097;43.260;27.812;2023-07-31T01:12:13;99522.47;;;20.80;96.46
10115;BME280;5097;43.260;27.812;2023-07-31T01:15:04;99513.69;;;20.69;97.37
10115;BME280;5097;43.260;27.812;2023-07-31T01:17:51;99507.91;;;20.56;98.24
10115;BME280;5097;43.260;27.812;2023-07-31T01:20:36;99461.84;;;20.26;98.67
10115;BME280;5097;43.260;27.812;2023-07-31T01:23:47;99520.63;;;20.46;98.10
10115;BME280;5097;43.260;27.812;2023-07-31T01:26:38;99529.06;;;20.24;100.00
10115;BME280;5097;43.260;27.812;2023-07-31T01:29:29;99540.66;;;20.33;100.00
10115;BME280;5097;43.260;27.812;2023-07-31T01:32:17;99526.03;;;20.27;99.48
10115;BME280;5097;43.260;27.812;2023-07-31T01:35:02;99481.88;;;20.05;99.27
10115;BME280;5097;43.260;27.812;2023-07-31T01:37:46;99521.00;;;20.24;100.00
10115;BME280;5097;43.260;27.812;2023-07-31T01:40:30;99509.88;;;19.67;100.00
10115;BME280;5097;43.260;27.812;2023-07-31T01:43:16;99507.25;;;19.57;100.00
10115;BME280;5097;43.260;27.812;2023-07-31T01:46:00;99516.69;;;19.61;100.00
10115;BME280;5097;43.260;27.812;2023-07-31T01:48:45;99513.75;;;19.72;100.00
10115;BME280;5097;43.260;27.812;2023-07-31T01:51:29;99538.94;;;19.98;100.00
10115;BME280;5097;43.260;27.812;2023-07-31T01:54:16;99538.66;;;20.09;100.00
10115;BME280;5097;43.260;27.812;2023-07-31T01:57:00;99547.66;;;20.26;100.00
10115;BME280;5097;43.260;27.812;2023-07-31T01:59:46;99545.34;;;20.31;100.00
10115;BME280;5097;43.260;27.812;2023-07-31T02:02:30;99558.72;;;20.23;100.00
10115;BME280;5097;43.260;27.812;2023-07-31T02:05:15;99521.66;;;19.74;100.00
10115;BME280;5097;43.260;27.812;2023-07-31T02:07:59;99500.19;;;19.30;100.00
10115;BME280;5097;43.260;27.812;2023-07-31T02:10:46;99506.47;;;19.38;100.00
10115;BME280;5097;43.260;27.812;2023-07-31T02:13:31;99535.13;;;19.64;100.00
10115;BME280;5097;43.260;27.812;2023-07-31T02:16:16;99535.53;;;19.69;100.00
10115;BME280;5097;43.260;27.812;2023-07-31T02:19:01;99535.53;;;19.51;100.00
10115;BME280;5097;43.260;27.812;2023-07-31T02:21:45;99498.50;;;19.47;100.00
10115;BME280;5097;43.260;27.812;2023-07-31T02:24:29;99513.47;;;19.03;100.00
10115;BME280;5097;43.260;27.812;2023-07-31T02:27:14;99502.28;;;18.90;100.00
10115;BME280;5097;43.260;27.812;2023-07-31T02:30:00;99528.63;;;19.13;100.00
10115;BME280;5097;43.260;27.812;2023-07-31T02:32:47;99492.75;;;19.05;100.00
10115;BME280;5097;43.260;27.812;2023-07-31T02:35:31;99528.03;;;19.55;100.00
10115;BME280;5097;43.260;27.812;2023-07-31T02:38:17;99522.66;;;19.55;100.00
10115;BME280;5097;43.260;27.812;2023-07-31T02:41:01;99530.19;;;19.33;100.00
10115;BME280;5097;43.260;27.812;2023-07-31T02:43:45;99541.88;;;19.32;100.00
10115;BME280;5097;43.260;27.812;2023-07-31T02:46:29;99518.94;;;19.48;100.00
10115;BME280;5097;43.260;27.812;2023-07-31T02:49:16;99534.59;;;19.60;100.00
10115;BME280;5097;43.260;27.812;2023-07-31T02:52:00;99513.88;;;19.45;100.00
10115;BME280;5097;43.260;27.812;2023-07-31T02:54:44;99534.75;;;19.59;100.00
10115;BME280;5097;43.260;27.812;2023-07-31T02:57:28;99527.66;;;19.32;100.00
10115;BME280;5097;43.260;27.812;2023-07-31T03:00:12;99556.88;;;19.43;100.00
10115;BME280;5097;43.260;27.812;2023-07-31T03:02:57;99515.94;;;19.51;100.00
10115;BME280;5097;43.260;27.812;2023-07-31T03:05:44;99523.72;;;19.62;100.00
10115;BME280;5097;43.260;27.812;2023-07-31T03:08:28;99561.38;;;19.97;100.00
10115;BME280;5097;43.260;27.812;2023-07-31T03:11:13;99550.97;;;19.75;100.00
10115;BME280;5097;43.260;27.812;2023-07-31T03:13:57;99520.81;;;19.73;100.00
10115;BME280;5097;43.260;27.812;2023-07-31T03:16:42;99520.16;;;19.80;100.00
10115;BME280;5097;43.260;27.812;2023-07-31T03:19:27;99527.25;;;19.63;100.00
10115;BME280;5097;43.260;27.812;2023-07-31T03:22:15;99557.13;;;19.86;100.00
10115;BME280;5097;43.260;27.812;2023-07-31T03:24:59;99522.47;;;19.92;100.00
10115;BME280;5097;43.260;27.812;2023-07-31T03:27:47;99545.13;;;19.98;100.00
10115;BME280;5097;43.260;27.812;2023-07-31T03:30:31;99532.00;;;20.13;100.00
10115;BME280;5097;43.260;27.812;2023-07-31T03:33:15;99540.03;;;20.13;100.00
10115;BME280;5097;43.260;27.812;2023-07-31T03:36:00;99562.69;;;20.45;100.00
10115;BME280;5097;43.260;27.812;2023-07-31T03:38:47;99555.44;;;20.37;100.00
10115;BME280;5097;43.260;27.812;2023-07-31T03:41:32;99541.19;;;20.10;100.00
10115;BME280;5097;43.260;27.812;2023-07-31T03:44:16;99537.94;;;20.25;100.00
10115;BME280;5097;43.260;27.812;2023-07-31T03:47:01;99538.13;;;20.32;100.00
10115;BME280;5097;43.260;27.812;2023-07-31T03:49:46;99562.28;;;20.66;100.00
10115;BME280;5097;43.260;27.812;2023-07-31T03:52:30;99560.66;;;20.73;100.00
10115;BME280;5097;43.260;27.812;2023-07-31T03:55:16;99539.34;;;20.37;100.00
10115;BME280;5097;43.260;27.812;2023-07-31T03:58:01;99545.84;;;20.61;100.00
10115;BME280;5097;43.260;27.812;2023-07-31T04:00:46;99544.25;;;20.76;100.00
10115;BME280;5097;43.260;27.812;2023-07-31T04:03:31;99549.66;;;20.85;100.00
10115;BME280;5097;43.260;27.812;2023-07-31T04:06:15;99577.25;;;21.03;100.00
10115;BME280;5097;43.260;27.812;2023-07-31T04:09:01;99565.28;;;20.98;100.00
10115;BME280;5097;43.260;27.812;2023-07-31T04:11:47;99528.84;;;20.87;99.58
10115;BME280;5097;43.260;27.812;2023-07-31T04:14:31;99528.28;;;21.18;95.88
10115;BME280;5097;43.260;27.812;2023-07-31T04:17:17;99568.66;;;21.67;95.74
10115;BME280;5097;43.260;27.812;2023-07-31T04:20:01;99565.28;;;22.15;94.34
10115;BME280;5097;43.260;27.812;2023-07-31T04:22:45;99533.53;;;21.85;94.82
10115;BME280;5097;43.260;27.812;2023-07-31T04:25:29;99540.59;;;21.86;94.68
10115;BME280;5097;43.260;27.812;2023-07-31T04:28:15;99562.91;;;22.03;95.23
10115;BME280;5097;43.260;27.812;2023-07-31T04:30:59;99530.47;;;22.21;93.76
10115;BME280;5097;43.260;27.812;2023-07-31T04:33:44;99535.00;;;22.29;91.53
10115;BME280;5097;43.260;27.812;2023-07-31T04:36:28;99537.41;;;22.64;91.85
10115;BME280;5097;43.260;27.812;2023-07-31T04:39:12;99536.84;;;22.76;91.07
10115;BME280;5097;43.260;27.812;2023-07-31T04:41:56;99541.19;;;22.86;89.97
10115;BME280;5097;43.260;27.812;2023-07-31T04:44:42;99544.66;;;22.94;89.47
10115;BME280;5097;43.260;27.812;2023-07-31T04:47:26;99564.66;;;23.08;89.86
10115;BME280;5097;43.260;27.812;2023-07-31T04:50:10;99549.53;;;22.99;89.85
10115;BME280;5097;43.260;27.812;2023-07-31T04:52:54;99554.06;;;23.07;89.29
10115;BME280;5097;43.260;27.812;2023-07-31T04:55:38;99583.56;;;23.32;90.06
10115;BME280;5097;43.260;27.812;2023-07-31T04:58:23;99575.97;;;23.58;89.22
10115;BME280;5097;43.260;27.812;2023-07-31T05:01:08;99584.41;;;23.79;87.72
10115;BME280;5097;43.260;27.812;2023-07-31T05:03:52;99593.75;;;24.14;86.79
10115;BME280;5097;43.260;27.812;2023-07-31T05:06:36;99592.56;;;24.17;84.85
10115;BME280;5097;43.260;27.812;2023-07-31T05:09:21;99568.78;;;23.74;85.81
10115;BME280;5097;43.260;27.812;2023-07-31T05:12:06;99596.78;;;23.96;84.75
10115;BME280;5097;43.260;27.812;2023-07-31T05:14:50;99574.94;;;23.83;85.41
10115;BME280;5097;43.260;27.812;2023-07-31T05:17:35;99580.25;;;23.99;83.57
10115;BME280;5097;43.260;27.812;2023-07-31T05:20:20;99601.00;;;24.14;84.13
10115;BME280;5097;43.260;27.812;2023-07-31T05:23:04;99574.91;;;23.91;82.91
10115;BME280;5097;43.260;27.812;2023-07-31T05:25:48;99542.00;;;23.72;84.64
10115;BME280;5097;43.260;27.812;2023-07-31T05:28:34;99608.69;;;24.40;83.01
10115;BME280;5097;43.260;27.812;2023-07-31T05:31:19;99577.56;;;24.14;82.91
10115;BME280;5097;43.260;27.812;2023-07-31T05:34:05;99583.63;;;24.31;81.92
10115;BME280;5097;43.260;27.812;2023-07-31T05:36:49;99580.31;;;24.59;81.06
10115;BME280;5097;43.260;27.812;2023-07-31T05:39:33;99615.63;;;25.02;80.07
10115;BME280;5097;43.260;27.812;2023-07-31T05:42:17;99618.75;;;25.06;78.68
10115;BME280;5097;43.260;27.812;2023-07-31T05:45:01;99583.38;;;24.56;80.07
10115;BME280;5097;43.260;27.812;2023-07-31T05:47:47;99617.59;;;24.79;80.20
10115;BME280;5097;43.260;27.812;2023-07-31T05:50:33;99589.19;;;24.68;80.08
10115;BME280;5097;43.260;27.812;2023-07-31T05:53:17;99623.34;;;25.05;78.60
10115;BME280;5097;43.260;27.812;2023-07-31T05:56:01;99591.59;;;24.63;79.71
10115;BME280;5097;43.260;27.812;2023-07-31T05:58:45;99615.28;;;25.27;78.02
10115;BME280;5097;43.260;27.812;2023-07-31T06:01:30;99622.50;;;25.05;78.95
10115;BME280;5097;43.260;27.812;2023-07-31T06:04:14;99593.00;;;24.73;79.65
10115;BME280;5097;43.260;27.812;2023-07-31T06:07:00;99618.66;;;25.29;78.24
10115;BME280;5097;43.260;27.812;2023-07-31T06:09:45;99585.28;;;25.22;77.94
10115;BME280;5097;43.260;27.812;2023-07-31T06:12:29;99592.75;;;25.56;76.67
10115;BME280;5097;43.260;27.812;2023-07-31T06:15:14;99599.97;;;25.71;76.27
10115;BME280;5097;43.260;27.812;2023-07-31T06:17:58;99621.88;;;25.98;74.90
10115;BME280;5097;43.260;27.812;2023-07-31T06:20:44;99602.97;;;26.26;74.21
10115;BME280;5097;43.260;27.812;2023-07-31T06:23:31;99614.88;;;26.32;73.44
10115;BME280;5097;43.260;27.812;2023-07-31T06:26:15;99634.84;;;26.52;73.57
10115;BME280;5097;43.260;27.812;2023-07-31T06:28:59;99605.16;;;25.14;77.41
10115;BME280;5097;43.260;27.812;2023-07-31T06:31:43;99639.00;;;25.62;76.96
10115;BME280;5097;43.260;27.812;2023-07-31T06:34:28;99617.03;;;25.71;76.90
10115;BME280;5097;43.260;27.812;2023-07-31T06:37:12;99634.94;;;25.72;75.39
10115;BME280;5097;43.260;27.812;2023-07-31T06:39:58;99616.78;;;25.30;77.49
10115;BME280;5097;43.260;27.812;2023-07-31T06:42:44;99623.28;;;25.72;76.39
10115;BME280;5097;43.260;27.812;2023-07-31T06:45:29;99616.25;;;26.21;74.96
10115;BME280;5097;43.260;27.812;2023-07-31T06:48:13;99609.06;;;26.06;72.91
10115;BME280;5097;43.260;27.812;2023-07-31T06:50:57;99606.91;;;26.02;71.12
10115;BME280;5097;43.260;27.812;2023-07-31T06:53:41;99635.09;;;26.07;72.94
10115;BME280;5097;43.260;27.812;2023-07-31T06:56:29;99639.16;;;26.18;72.01
10115;BME280;5097;43.260;27.812;2023-07-31T06:59:13;99631.09;;;26.03;69.10
10115;BME280;5097;43.260;27.812;2023-07-31T07:01:57;99635.59;;;25.96;68.33
10115;BME280;5097;43.260;27.812;2023-07-31T07:04:41;99598.09;;;25.93;68.33
10115;BME280;5097;43.260;27.812;2023-07-31T07:07:26;99609.78;;;25.35;69.35
10115;BME280;5097;43.260;27.812;2023-07-31T07:10:10;99621.41;;;25.94;69.17
10115;BME280;5097;43.260;27.812;2023-07-31T07:12:56;99606.34;;;26.06;68.17
10115;BME280;5097;43.260;27.812;2023-07-31T07:15:40;99632.09;;;26.02;68.30
10115;BME280;5097;43.260;27.812;2023-07-31T07:18:24;99647.94;;;25.84;68.48
10115;BME280;5097;43.260;27.812;2023-07-31T07:21:08;99631.09;;;25.60;69.54
10115;BME280;5097;43.260;27.812;2023-07-31T07:23:52;99603.72;;;25.33;69.88
10115;BME280;5097;43.260;27.812;2023-07-31T07:26:36;99607.09;;;25.57;69.91
10115;BME280;5097;43.260;27.812;2023-07-31T07:29:22;99601.06;;;25.55;69.46
10115;BME280;5097;43.260;27.812;2023-07-31T07:32:07;99637.72;;;26.22;67.96
10115;BME280;5097;43.260;27.812;2023-07-31T07:34:51;99624.88;;;26.03;67.26
10115;BME280;5097;43.260;27.812;2023-07-31T07:37:35;99604.91;;;26.10;66.51
10115;BME280;5097;43.260;27.812;2023-07-31T07:40:19;99631.28;;;26.23;67.63
10115;BME280;5097;43.260;27.812;2023-07-31T07:43:04;99636.56;;;26.10;66.12
10115;BME280;5097;43.260;27.812;2023-07-31T07:45:49;99604.00;;;26.25;66.22
10115;BME280;5097;43.260;27.812;2023-07-31T07:48:33;99630.50;;;26.93;65.60
10115;BME280;5097;43.260;27.812;2023-07-31T07:51:17;99619.94;;;26.41;64.83
10115;BME280;5097;43.260;27.812;2023-07-31T07:54:02;99624.50;;;26.69;64.80
10115;BME280;5097;43.260;27.812;2023-07-31T07:56:46;99633.88;;;27.02;64.49
10115;BME280;5097;43.260;27.812;2023-07-31T07:59:30;99638.41;;;26.88;63.01
10115;BME280;5097;43.260;27.812;2023-07-31T08:02:16;99592.19;;;26.04;64.66
10115;BME280;5097;43.260;27.812;2023-07-31T08:05:00;99640.09;;;25.89;65.61
10115;BME280;5097;43.260;27.812;2023-07-31T08:07:45;99614.97;;;25.95;64.31
10115;BME280;5097;43.260;27.812;2023-07-31T08:10:29;99637.25;;;27.10;63.22
10115;BME280;5097;43.260;27.812;2023-07-31T08:13:13;99608.16;;;26.56;63.54
10115;BME280;5097;43.260;27.812;2023-07-31T08:15:57;99598.00;;;26.30;63.59
10115;BME280;5097;43.260;27.812;2023-07-31T08:18:43;99644.50;;;26.68;63.00
10115;BME280;5097;43.260;27.812;2023-07-31T08:21:27;99643.34;;;26.77;62.46
10115;BME280;5097;43.260;27.812;2023-07-31T08:24:11;99642.75;;;27.24;61.60
10115;BME280;5097;43.260;27.812;2023-07-31T08:26:55;99638.69;;;27.55;59.31
10115;BME280;5097;43.260;27.812;2023-07-31T08:29:39;99643.28;;;27.54;60.23
10115;BME280;5097;43.260;27.812;2023-07-31T08:32:24;99647.38;;;27.30;59.94
10115;BME280;5097;43.260;27.812;2023-07-31T08:35:09;99613.34;;;26.51;60.30
10115;BME280;5097;43.260;27.812;2023-07-31T08:37:54;99651.31;;;26.86;60.33
10115;BME280;5097;43.260;27.812;2023-07-31T08:40:38;99622.53;;;26.85;60.40
10115;BME280;5097;43.260;27.812;2023-07-31T08:43:25;99652.50;;;27.73;58.68
10115;BME280;5097;43.260;27.812;2023-07-31T08:46:09;99637.56;;;28.11;56.66
10115;BME280;5097;43.260;27.812;2023-07-31T08:48:54;99637.13;;;28.34;56.82
10115;BME280;5097;43.260;27.812;2023-07-31T08:51:43;99615.78;;;28.58;56.00
10115;BME280;5097;43.260;27.812;2023-07-31T08:54:27;99653.19;;;28.42;55.90
10115;BME280;5097;43.260;27.812;2023-07-31T08:57:14;99621.25;;;28.31;56.46
10115;BME280;5097;43.260;27.812;2023-07-31T08:59:58;99627.09;;;28.41;56.06
10115;BME280;5097;43.260;27.812;2023-07-31T09:02:53;99660.09;;;28.38;56.51
10115;BME280;5097;43.260;27.812;2023-07-31T09:05:42;99636.50;;;27.30;59.06
10115;BME280;5097;43.260;27.812;2023-07-31T09:08:30;99668.81;;;27.73;57.58
10115;BME280;5097;43.260;27.812;2023-07-31T09:11:15;99671.44;;;27.47;59.83
10115;BME280;5097;43.260;27.812;2023-07-31T09:13:59;99636.41;;;27.03;60.36
10115;BME280;5097;43.260;27.812;2023-07-31T09:16:52;99668.59;;;27.75;59.08
10115;BME280;5097;43.260;27.812;2023-07-31T09:19:37;99635.66;;;28.38;56.77
10115;BME280;5097;43.260;27.812;2023-07-31T09:22:31;99677.88;;;28.41;56.00
10115;BME280;5097;43.260;27.812;2023-07-31T09:25:21;99668.47;;;28.30;56.40
10115;BME280;5097;43.260;27.812;2023-07-31T09:28:06;99676.34;;;28.92;55.33
10115;BME280;5097;43.260;27.812;2023-07-31T09:30:51;99650.13;;;29.24;52.99
10115;BME280;5097;43.260;27.812;2023-07-31T09:33:54;99651.66;;;29.07;51.92
10115;BME280;5097;43.260;27.812;2023-07-31T09:36:42;99659.63;;;28.95;52.25
10115;BME280;5097;43.260;27.812;2023-07-31T09:39:26;99652.81;;;28.66;50.83
10115;BME280;5097;43.260;27.812;2023-07-31T09:42:12;99646.34;;;28.20;51.60
10115;BME280;5097;43.260;27.812;2023-07-31T09:45:07;99651.31;;;27.96;52.42
10115;BME280;5097;43.260;27.812;2023-07-31T09:47:51;99685.63;;;28.71;51.80
10115;BME280;5097;43.260;27.812;2023-07-31T09:50:37;99676.22;;;28.47;52.62
10115;BME280;5097;43.260;27.812;2023-07-31T09:53:28;99665.13;;;28.48;51.25
10115;BME280;5097;43.260;27.812;2023-07-31T09:56:13;99654.50;;;27.38;53.31
10115;BME280;5097;43.260;27.812;2023-07-31T09:58:58;99646.88;;;27.68;53.41
10115;BME280;5097;43.260;27.812;2023-07-31T10:01:44;99669.50;;;28.02;53.15
10115;BME280;5097;43.260;27.812;2023-07-31T10:04:29;99655.72;;;28.57;51.08
10115;BME280;5097;43.260;27.812;2023-07-31T10:07:15;99681.69;;;29.32;50.60
10115;BME280;5097;43.260;27.812;2023-07-31T10:10:01;99680.88;;;29.32;49.39
10115;BME280;5097;43.260;27.812;2023-07-31T10:12:46;99647.97;;;28.41;52.15
10115;BME280;5097;43.260;27.812;2023-07-31T10:15:34;99654.28;;;28.41;51.46
10115;BME280;5097;43.260;27.812;2023-07-31T10:18:19;99680.16;;;28.57;52.14
10115;BME280;5097;43.260;27.812;2023-07-31T10:21:04;99641.91;;;27.92;54.06
10115;BME280;5097;43.260;27.812;2023-07-31T10:23:49;99681.28;;;27.54;55.35
10115;BME280;5097;43.260;27.812;2023-07-31T10:26:35;99657.59;;;27.35;54.57
10115;BME280;5097;43.260;27.812;2023-07-31T10:29:22;99650.50;;;26.92;56.28
10115;BME280;5097;43.260;27.812;2023-07-31T10:32:10;99652.56;;;27.25;55.85
10115;BME280;5097;43.260;27.812;2023-07-31T10:34:55;99666.47;;;26.52;57.08
10115;BME280;5097;43.260;27.812;2023-07-31T10:37:40;99688.94;;;27.44;55.56
10115;BME280;5097;43.260;27.812;2023-07-31T10:40:27;99651.06;;;27.16;56.15
10115;BME280;5097;43.260;27.812;2023-07-31T10:43:24;99663.63;;;27.30;55.78
10115;BME280;5097;43.260;27.812;2023-07-31T10:46:12;99678.53;;;27.48;55.03
10115;BME280;5097;43.260;27.812;2023-07-31T10:49:02;99614.03;;;27.43;54.75
10115;BME280;5097;43.260;27.812;2023-07-31T10:51:47;99678.34;;;27.56;55.69
10115;BME280;5097;43.260;27.812;2023-07-31T10:54:33;99682.13;;;26.28;58.93
10115;BME280;5097;43.260;27.812;2023-07-31T10:57:21;99647.53;;;26.80;58.01
10115;BME280;5097;43.260;27.812;2023-07-31T11:00:18;99641.00;;;27.09;57.84
10115;BME280;5097;43.260;27.812;2023-07-31T11:03:03;99643.00;;;26.87;58.43
10115;BME280;5097;43.260;27.812;2023-07-31T11:05:53;99634.81;;;26.81;57.96
10115;BME280;5097;43.260;27.812;2023-07-31T11:08:44;99662.22;;;28.23;55.38
10115;BME280;5097;43.260;27.812;2023-07-31T11:11:28;99629.56;;;28.83;53.80
10115;BME280;5097;43.260;27.812;2023-07-31T11:14:12;99655.50;;;28.59;53.86
10115;BME280;5097;43.260;27.812;2023-07-31T11:16:56;99624.88;;;27.43;56.29
10115;BME280;5097;43.260;27.812;2023-07-31T11:19:41;99612.88;;;27.99;55.17
10115;BME280;5097;43.260;27.812;2023-07-31T11:22:27;99616.59;;;27.71;56.91
10115;BME280;5097;43.260;27.812;2023-07-31T11:25:11;99583.88;;;27.11;56.80
10115;BME280;5097;43.260;27.812;2023-07-31T11:27:55;99636.72;;;28.44;55.38
10115;BME280;5097;43.260;27.812;2023-07-31T11:30:41;99599.50;;;27.91;55.66
10115;BME280;5097;43.260;27.812;2023-07-31T11:33:25;99638.75;;;27.95;56.10
10115;BME280;5097;43.260;27.812;2023-07-31T11:36:14;99601.13;;;27.52;56.27
10115;BME280;5097;43.260;27.812;2023-07-31T11:39:06;99628.13;;;26.76;59.66
10115;BME280;5097;43.260;27.812;2023-07-31T11:41:51;99598.66;;;27.70;57.42
10115;BME280;5097;43.260;27.812;2023-07-31T11:44:40;99615.78;;;27.77;57.40
10115;BME280;5097;43.260;27.812;2023-07-31T11:47:32;99630.31;;;27.50;58.63
10115;BME280;5097;43.260;27.812;2023-07-31T11:50:18;99593.53;;;27.34;58.20
10115;BME280;5097;43.260;27.812;2023-07-31T11:53:07;99613.91;;;27.09;58.74
10115;BME280;5097;43.260;27.812;2023-07-31T11:55:54;99643.16;;;27.21;59.44
10115;BME280;5097;43.260;27.812;2023-07-31T11:58:40;99608.97;;;27.26;58.89
10115;BME280;5097;43.260;27.812;2023-07-31T12:01:27;99641.53;;;27.33;60.31
10115;BME280;5097;43.260;27.812;2023-07-31T12:04:12;99607.69;;;26.46;65.00
10115;BME280;5097;43.260;27.812;2023-07-31T12:06:56;99597.72;;;26.81;64.82
10115;BME280;5097;43.260;27.812;2023-07-31T12:09:51;99588.78;;;26.24;65.61
10115;BME280;5097;43.260;27.812;2023-07-31T12:12:36;99599.38;;;25.54;68.05
10115;BME280;5097;43.260;27.812;2023-07-31T12:15:21;99618.72;;;25.72;70.54
10115;BME280;5097;43.260;27.812;2023-07-31T12:18:07;99609.16;;;26.20;67.22
10115;BME280;5097;43.260;27.812;2023-07-31T12:20:55;99605.78;;;26.39;65.00
10115;BME280;5097;43.260;27.812;2023-07-31T12:23:39;99626.88;;;26.51;64.93
10115;BME280;5097;43.260;27.812;2023-07-31T12:26:33;99598.72;;;25.52;67.12
10115;BME280;5097;43.260;27.812;2023-07-31T12:29:19;99580.91;;;25.79;66.63
10115;BME280;5097;43.260;27.812;2023-07-31T12:32:04;99559.03;;;25.52;67.13
10115;BME280;5097;43.260;27.812;2023-07-31T12:34:48;99591.72;;;25.21;68.34
10115;BME280;5097;43.260;27.812;2023-07-31T12:37:33;99566.69;;;25.12;68.67
10115;BME280;5097;43.260;27.812;2023-07-31T12:40:17;99588.78;;;25.52;68.03
10115;BME280;5097;43.260;27.812;2023-07-31T12:43:08;99575.94;;;25.61;67.44
10115;BME280;5097;43.260;27.812;2023-07-31T12:45:55;99599.72;;;25.44;68.07
10115;BME280;5097;43.260;27.812;2023-07-31T12:48:41;99595.13;;;25.45;67.00
10115;BME280;5097;43.260;27.812;2023-07-31T12:51:25;99597.19;;;25.27;68.37
10115;BME280;5097;43.260;27.812;2023-07-31T12:54:09;99574.59;;;25.14;67.44
10115;BME280;5097;43.260;27.812;2023-07-31T12:56:53;99608.34;;;25.03;69.02
10115;BME280;5097;43.260;27.812;2023-07-31T12:59:40;99574.00;;;24.82;70.24
10115;BME280;5097;43.260;27.812;2023-07-31T13:02:26;99595.00;;;25.53;69.42
10115;BME280;5097;43.260;27.812;2023-07-31T13:05:10;99594.69;;;25.84;70.59
10115;BME280;5097;43.260;27.812;2023-07-31T13:07:56;99582.56;;;25.37;72.24
10115;BME280;5097;43.260;27.812;2023-07-31T13:10:40;99562.63;;;25.38;72.77
10115;BME280;5097;43.260;27.812;2023-07-31T13:13:24;99563.69;;;25.65;71.15
10115;BME280;5097;43.260;27.812;2023-07-31T13:16:08;99584.13;;;25.68;70.48
10115;BME280;5097;43.260;27.812;2023-07-31T13:18:54;99585.72;;;25.40;73.38
10115;BME280;5097;43.260;27.812;2023-07-31T13:21:38;99594.00;;;25.02;72.85
10115;BME280;5097;43.260;27.812;2023-07-31T13:24:22;99572.72;;;25.14;73.38
10115;BME280;5097;43.260;27.812;2023-07-31T13:27:06;99570.72;;;25.01;73.88
10115;BME280;5097;43.260;27.812;2023-07-31T13:29:51;99580.44;;;25.75;72.24
10115;BME280;5097;43.260;27.812;2023-07-31T13:32:35;99576.19;;;25.66;72.09
10115;BME280;5097;43.260;27.812;2023-07-31T13:35:23;99582.81;;;25.85;71.18
10115;BME280;5097;43.260;27.812;2023-07-31T13:38:07;99594.88;;;25.61;72.42
10115;BME280;5097;43.260;27.812;2023-07-31T13:40:52;99566.63;;;25.27;72.37
10115;BME280;5097;43.260;27.812;2023-07-31T13:43:36;99549.59;;;25.26;72.72
10115;BME280;5097;43.260;27.812;2023-07-31T13:46:20;99598.22;;;26.06;70.23
10115;BME280;5097;43.260;27.812;2023-07-31T13:49:04;99569.63;;;25.75;71.18
10115;BME280;5097;43.260;27.812;2023-07-31T13:51:50;99575.44;;;25.51;70.82
10115;BME280;5097;43.260;27.812;2023-07-31T13:54:34;99544.50;;;26.03;69.42
10115;BME280;5097;43.260;27.812;2023-07-31T13:57:18;99545.13;;;26.34;67.12
10115;BME280;5097;43.260;27.812;2023-07-31T14:00:02;99603.28;;;27.15;65.86
10115;BME280;5097;43.260;27.812;2023-07-31T14:02:48;99570.25;;;26.56;66.71
10115;BME280;5097;43.260;27.812;2023-07-31T14:05:32;99552.22;;;27.25;64.27
10115;BME280;5097;43.260;27.812;2023-07-31T14:08:18;99605.22;;;27.34;64.62
10115;BME280;5097;43.260;27.812;2023-07-31T14:11:02;99562.88;;;26.71;65.59
10115;BME280;5097;43.260;27.812;2023-07-31T14:13:46;99590.00;;;26.78;66.83
10115;BME280;5097;43.260;27.812;2023-07-31T14:16:30;99588.66;;;26.67;66.83
10115;BME280;5097;43.260;27.812;2023-07-31T14:19:14;99586.84;;;26.74;67.45
10115;BME280;5097;43.260;27.812;2023-07-31T14:21:58;99576.06;;;26.53;68.21
10115;BME280;5097;43.260;27.812;2023-07-31T14:24:54;99583.44;;;27.07;66.44
10115;BME280;5097;43.260;27.812;2023-07-31T14:27:38;99589.03;;;26.64;66.54
10115;BME280;5097;43.260;27.812;2023-07-31T14:30:22;99574.91;;;26.05;67.77
10115;BME280;5097;43.260;27.812;2023-07-31T14:33:07;99597.81;;;26.31;67.35